sensor_id;sensor_type;location;lat;lon;timestamp;P1;durP1;ratioP1;P2;durP2;ratioP2
53753;SDS011;39667;52.274;20.964;2022-08-14T00:01:46;9.20;;;8.30;;
53753;SDS011;39667;52.274;20.964;2022-08-14T00:04:21;8.00;;;7.20;;
53753;SDS011;39667;52.274;20.964;2022-08-14T00:07:07;8.70;;;7.90;;
53753;SDS011;39667;52.274;20.964;2022-08-14T00:09:35;8.60;;;7.60;;
53753;SDS011;39667;52.274;20.964;2022-08-14T00:12:22;7.80;;;6.70;;
53753;SDS011;39667;52.274;20.964;2022-08-14T00:15:17;8.10;;;7.30;;
53753;SDS011;39667;52.274;20.964;2022-08-14T00:17:49;7.90;;;7.20;;
53753;SDS011;39667;52.274;20.964;2022-08-14T00:20:21;8.80;;;7.80;;
53753;SDS011;39667;52.274;20.964;2022-08-14T00:23:03;10.30;;;7.30;;
53753;SDS011;39667;52.274;20.964;2022-08-14T00:25:40;8.10;;;7.00;;
53753;SDS011;39667;52.274;20.964;2022-08-14T00:28:09;7.10;;;6.00;;
53753;SDS011;39667;52.274;20.964;2022-08-14T00:30:41;11.60;;;7.10;;
53753;SDS011;39667;52.274;20.964;2022-08-14T00:33:08;7.50;;;6.80;;
53753;SDS011;39667;52.274;20.964;2022-08-14T00:35:41;8.40;;;7.00;;
53753;SDS011;39667;52.274;20.964;2022-08-14T00:38:29;10.00;;;6.70;;
53753;SDS011;39667;52.274;20.964;2022-08-14T00:41:00;7.30;;;6.60;;
53753;SDS011;39667;52.274;20.964;2022-08-14T00:43:27;7.70;;;7.00;;
53753;SDS011;39667;52.274;20.964;2022-08-14T00:46:08;7.90;;;6.90;;
53753;SDS011;39667;52.274;20.964;2022-08-14T00:48:57;7.30;;;6.40;;
53753;SDS011;39667;52.274;20.964;2022-08-14T00:51:24;6.60;;;5.90;;
53753;SDS011;39667;52.274;20.964;2022-08-14T00:54:03;6.70;;;6.10;;
53753;SDS011;39667;52.274;20.964;2022-08-14T00:56:47;7.50;;;6.80;;
53753;SDS011;39667;52.274;20.964;2022-08-14T00:59:20;11.40;;;7.00;;
53753;SDS011;39667;52.274;20.964;2022-08-14T01:01:50;7.00;;;6.20;;
53753;SDS011;39667;52.274;20.964;2022-08-14T01:04:20;7.20;;;6.10;;
53753;SDS011;39667;52.274;20.964;2022-08-14T01:07:08;7.10;;;6.10;;
53753;SDS011;39667;52.274;20.964;2022-08-14T01:09:39;9.50;;;6.30;;
53753;SDS011;39667;52.274;20.964;2022-08-14T01:12:06;7.50;;;5.70;;
53753;SDS011;39667;52.274;20.964;2022-08-14T01:14:36;7.50;;;5.80;;
53753;SDS011;39667;52.274;20.964;2022-08-14T01:17:06;7.90;;;6.20;;
53753;SDS011;39667;52.274;20.964;2022-08-14T01:19:34;6.80;;;5.80;;
53753;SDS011;39667;52.274;20.964;2022-08-14T01:24:52;9.70;;;5.80;;
53753;SDS011;39667;52.274;20.964;2022-08-14T01:27:20;8.00;;;5.80;;
53753;SDS011;39667;52.274;20.964;2022-08-14T01:29:54;7.80;;;5.60;;
53753;SDS011;39667;52.274;20.964;2022-08-14T01:32:30;7.80;;;5.20;;
53753;SDS011;39667;52.274;20.964;2022-08-14T01:35:03;7.30;;;5.80;;
53753;SDS011;39667;52.274;20.964;2022-08-14T01:37:53;9.70;;;5.60;;
53753;SDS011;39667;52.274;20.964;2022-08-14T01:40:25;7.20;;;6.10;;
53753;SDS011;39667;52.274;20.964;2022-08-14T01:43:13;7.60;;;5.80;;
53753;SDS011;39667;52.274;20.964;2022-08-14T01:45:47;6.60;;;5.40;;
53753;SDS011;39667;52.274;20.964;2022-08-14T01:48:32;8.70;;;6.10;;
53753;SDS011;39667;52.274;20.964;2022-08-14T01:51:03;5.90;;;5.30;;
53753;SDS011;39667;52.274;20.964;2022-08-14T01:53:46;7.10;;;5.30;;
53753;SDS011;39667;52.274;20.964;2022-08-14T01:56:21;5.40;;;4.90;;
53753;SDS011;39667;52.274;20.964;2022-08-14T01:59:06;8.80;;;5.20;;
53753;SDS011;39667;52.274;20.964;2022-08-14T02:01:43;9.40;;;5.90;;
53753;SDS011;39667;52.274;20.964;2022-08-14T02:04:29;7.70;;;4.90;;
53753;SDS011;39667;52.274;20.964;2022-08-14T02:07:18;6.20;;;5.20;;
53753;SDS011;39667;52.274;20.964;2022-08-14T02:10:06;6.90;;;5.70;;
53753;SDS011;39667;52.274;20.964;2022-08-14T02:12:41;8.60;;;5.40;;
53753;SDS011;39667;52.274;20.964;2022-08-14T02:15:08;5.80;;;5.30;;
53753;SDS011;39667;52.274;20.964;2022-08-14T02:17:36;6.70;;;5.50;;
53753;SDS011;39667;52.274;20.964;2022-08-14T02:20:04;6.90;;;5.00;;
53753;SDS011;39667;52.274;20.964;2022-08-14T02:22:33;6.70;;;5.40;;
53753;SDS011;39667;52.274;20.964;2022-08-14T02:25:13;5.30;;;4.80;;
53753;SDS011;39667;52.274;20.964;2022-08-14T02:27:42;5.30;;;4.90;;
53753;SDS011;39667;52.274;20.964;2022-08-14T02:30:31;8.40;;;5.60;;
53753;SDS011;39667;52.274;20.964;2022-08-14T02:33:00;5.90;;;5.30;;
53753;SDS011;39667;52.274;20.964;2022-08-14T02:35:27;8.10;;;5.30;;
53753;SDS011;39667;52.274;20.964;2022-08-14T02:37:58;7.00;;;5.50;;
53753;SDS011;39667;52.274;20.964;2022-08-14T02:40:30;8.20;;;5.10;;
53753;SDS011;39667;52.274;20.964;2022-08-14T02:43:01;7.40;;;5.40;;
53753;SDS011;39667;52.274;20.964;2022-08-14T02:45:31;7.00;;;5.40;;
53753;SDS011;39667;52.274;20.964;2022-08-14T02:48:09;7.50;;;5.30;;
53753;SDS011;39667;52.274;20.964;2022-08-14T02:50:57;6.10;;;5.40;;
53753;SDS011;39667;52.274;20.964;2022-08-14T02:53:27;6.60;;;4.90;;
53753;SDS011;39667;52.274;20.964;2022-08-14T02:55:55;7.60;;;5.70;;
53753;SDS011;39667;52.274;20.964;2022-08-14T02:58:36;5.90;;;5.30;;
53753;SDS011;39667;52.274;20.964;2022-08-14T03:01:08;7.50;;;5.10;;
53753;SDS011;39667;52.274;20.964;2022-08-14T03:03:36;6.40;;;5.30;;
53753;SDS011;39667;52.274;20.964;2022-08-14T03:06:04;6.80;;;5.00;;
53753;SDS011;39667;52.274;20.964;2022-08-14T03:08:35;13.20;;;5.10;;
53753;SDS011;39667;52.274;20.964;2022-08-14T03:11:04;6.90;;;4.40;;
53753;SDS011;39667;52.274;20.964;2022-08-14T03:13:36;7.20;;;5.00;;
53753;SDS011;39667;52.274;20.964;2022-08-14T03:16:10;7.40;;;5.10;;
53753;SDS011;39667;52.274;20.964;2022-08-14T03:18:52;6.20;;;5.20;;
53753;SDS011;39667;52.274;20.964;2022-08-14T03:21:25;7.30;;;5.00;;
53753;SDS011;39667;52.274;20.964;2022-08-14T03:23:53;7.00;;;6.30;;
53753;SDS011;39667;52.274;20.964;2022-08-14T03:26:49;6.80;;;5.00;;
53753;SDS011;39667;52.274;20.964;2022-08-14T03:29:23;5.90;;;4.50;;
53753;SDS011;39667;52.274;20.964;2022-08-14T03:31:52;5.40;;;4.70;;
53753;SDS011;39667;52.274;20.964;2022-08-14T03:34:19;9.60;;;4.50;;
53753;SDS011;39667;52.274;20.964;2022-08-14T03:37:09;7.40;;;4.60;;
53753;SDS011;39667;52.274;20.964;2022-08-14T03:39:57;7.70;;;4.30;;
53753;SDS011;39667;52.274;20.964;2022-08-14T03:42:25;8.60;;;4.60;;
53753;SDS011;39667;52.274;20.964;2022-08-14T03:45:02;6.50;;;4.30;;
53753;SDS011;39667;52.274;20.964;2022-08-14T03:47:51;4.90;;;4.10;;
53753;SDS011;39667;52.274;20.964;2022-08-14T03:50:26;5.30;;;4.80;;
53753;SDS011;39667;52.274;20.964;2022-08-14T03:52:58;8.80;;;4.60;;
53753;SDS011;39667;52.274;20.964;2022-08-14T03:55:27;8.60;;;4.50;;
53753;SDS011;39667;52.274;20.964;2022-08-14T03:57:56;9.10;;;4.70;;
53753;SDS011;39667;52.274;20.964;2022-08-14T04:00:26;6.70;;;4.40;;
53753;SDS011;39667;52.274;20.964;2022-08-14T04:03:09;6.00;;;4.80;;
53753;SDS011;39667;52.274;20.964;2022-08-14T04:05:41;7.10;;;4.60;;
53753;SDS011;39667;52.274;20.964;2022-08-14T04:08:15;6.20;;;4.40;;
53753;SDS011;39667;52.274;20.964;2022-08-14T04:10:56;5.10;;;4.60;;
53753;SDS011;39667;52.274;20.964;2022-08-14T04:13:27;6.70;;;4.80;;
53753;SDS011;39667;52.274;20.964;2022-08-14T04:16:00;6.50;;;4.60;;
53753;SDS011;39667;52.274;20.964;2022-08-14T04:18:39;6.20;;;4.50;;
53753;SDS011;39667;52.274;20.964;2022-08-14T04:21:09;7.00;;;4.60;;
53753;SDS011;39667;52.274;20.964;2022-08-14T04:23:36;6.90;;;4.60;;
53753;SDS011;39667;52.274;20.964;2022-08-14T04:26:06;6.00;;;4.70;;
53753;SDS011;39667;52.274;20.964;2022-08-14T04:28:52;7.80;;;5.10;;
53753;SDS011;39667;52.274;20.964;2022-08-14T04:31:40;8.20;;;4.90;;
53753;SDS011;39667;52.274;20.964;2022-08-14T04:34:26;5.70;;;4.60;;
53753;SDS011;39667;52.274;20.964;2022-08-14T04:36:55;7.10;;;4.80;;
53753;SDS011;39667;52.274;20.964;2022-08-14T04:39:47;5.60;;;4.50;;
53753;SDS011;39667;52.274;20.964;2022-08-14T04:42:34;6.00;;;4.80;;
53753;SDS011;39667;52.274;20.964;2022-08-14T04:45:20;9.10;;;4.60;;
53753;SDS011;39667;52.274;20.964;2022-08-14T04:47:50;5.90;;;5.00;;
53753;SDS011;39667;52.274;20.964;2022-08-14T04:50:39;6.10;;;4.30;;
53753;SDS011;39667;52.274;20.964;2022-08-14T04:53:21;10.60;;;4.80;;
53753;SDS011;39667;52.274;20.964;2022-08-14T04:56:00;5.60;;;4.50;;
53753;SDS011;39667;52.274;20.964;2022-08-14T04:58:28;5.20;;;4.70;;
53753;SDS011;39667;52.274;20.964;2022-08-14T05:01:00;6.90;;;4.80;;
53753;SDS011;39667;52.274;20.964;2022-08-14T05:03:30;7.20;;;5.30;;
53753;SDS011;39667;52.274;20.964;2022-08-14T05:06:03;6.10;;;5.10;;
53753;SDS011;39667;52.274;20.964;2022-08-14T05:08:53;6.80;;;5.00;;
53753;SDS011;39667;52.274;20.964;2022-08-14T05:11:25;6.40;;;5.20;;
53753;SDS011;39667;52.274;20.964;2022-08-14T05:13:53;6.30;;;5.00;;
53753;SDS011;39667;52.274;20.964;2022-08-14T05:16:41;7.60;;;5.50;;
53753;SDS011;39667;52.274;20.964;2022-08-14T05:19:13;6.60;;;4.80;;
53753;SDS011;39667;52.274;20.964;2022-08-14T05:21:51;6.00;;;4.80;;
53753;SDS011;39667;52.274;20.964;2022-08-14T05:24:43;7.20;;;5.40;;
53753;SDS011;39667;52.274;20.964;2022-08-14T05:27:15;7.50;;;5.40;;
53753;SDS011;39667;52.274;20.964;2022-08-14T05:29:52;8.00;;;5.50;;
53753;SDS011;39667;52.274;20.964;2022-08-14T05:32:23;7.60;;;5.80;;
53753;SDS011;39667;52.274;20.964;2022-08-14T05:35:02;6.60;;;5.80;;
53753;SDS011;39667;52.274;20.964;2022-08-14T05:37:29;8.60;;;5.40;;
53753;SDS011;39667;52.274;20.964;2022-08-14T05:39:56;10.00;;;5.80;;
53753;SDS011;39667;52.274;20.964;2022-08-14T05:42:24;8.10;;;6.50;;
53753;SDS011;39667;52.274;20.964;2022-08-14T05:44:57;6.90;;;5.80;;
53753;SDS011;39667;52.274;20.964;2022-08-14T05:47:25;8.60;;;6.40;;
53753;SDS011;39667;52.274;20.964;2022-08-14T05:50:06;10.10;;;6.40;;
53753;SDS011;39667;52.274;20.964;2022-08-14T05:52:45;8.70;;;6.10;;
53753;SDS011;39667;52.274;20.964;2022-08-14T05:55:16;6.70;;;5.90;;
53753;SDS011;39667;52.274;20.964;2022-08-14T06:00:23;7.40;;;6.50;;
53753;SDS011;39667;52.274;20.964;2022-08-14T06:03:03;7.80;;;7.00;;
53753;SDS011;39667;52.274;20.964;2022-08-14T06:05:32;7.70;;;7.00;;
53753;SDS011;39667;52.274;20.964;2022-08-14T06:08:03;10.00;;;6.90;;
53753;SDS011;39667;52.274;20.964;2022-08-14T06:10:47;7.90;;;6.60;;
53753;SDS011;39667;52.274;20.964;2022-08-14T06:13:16;10.00;;;7.90;;
53753;SDS011;39667;52.274;20.964;2022-08-14T06:15:45;8.30;;;7.50;;
53753;SDS011;39667;52.274;20.964;2022-08-14T06:18:13;8.70;;;7.50;;
53753;SDS011;39667;52.274;20.964;2022-08-14T06:20:43;9.40;;;8.10;;
53753;SDS011;39667;52.274;20.964;2022-08-14T06:23:11;8.10;;;7.30;;
53753;SDS011;39667;52.274;20.964;2022-08-14T06:25:40;9.80;;;7.20;;
53753;SDS011;39667;52.274;20.964;2022-08-14T06:28:19;8.20;;;7.40;;
53753;SDS011;39667;52.274;20.964;2022-08-14T06:30:53;12.30;;;8.20;;
53753;SDS011;39667;52.274;20.964;2022-08-14T06:33:21;8.90;;;8.00;;
53753;SDS011;39667;52.274;20.964;2022-08-14T06:36:08;9.20;;;8.20;;
53753;SDS011;39667;52.274;20.964;2022-08-14T06:38:36;12.70;;;8.90;;
53753;SDS011;39667;52.274;20.964;2022-08-14T06:41:03;9.20;;;7.50;;
53753;SDS011;39667;52.274;20.964;2022-08-14T06:43:36;8.50;;;7.70;;
53753;SDS011;39667;52.274;20.964;2022-08-14T06:46:10;9.10;;;8.10;;
53753;SDS011;39667;52.274;20.964;2022-08-14T06:48:51;10.50;;;8.00;;
53753;SDS011;39667;52.274;20.964;2022-08-14T06:51:20;9.10;;;8.20;;
53753;SDS011;39667;52.274;20.964;2022-08-14T06:53:47;9.50;;;7.70;;
53753;SDS011;39667;52.274;20.964;2022-08-14T06:56:14;9.10;;;7.90;;
53753;SDS011;39667;52.274;20.964;2022-08-14T06:58:42;8.70;;;8.00;;
53753;SDS011;39667;52.274;20.964;2022-08-14T07:01:08;10.50;;;8.40;;
53753;SDS011;39667;52.274;20.964;2022-08-14T07:03:56;8.90;;;8.00;;
53753;SDS011;39667;52.274;20.964;2022-08-14T07:06:52;9.60;;;8.70;;
53753;SDS011;39667;52.274;20.964;2022-08-14T07:09:25;12.60;;;8.70;;
53753;SDS011;39667;52.274;20.964;2022-08-14T07:12:09;13.00;;;8.10;;
53753;SDS011;39667;52.274;20.964;2022-08-14T07:14:56;11.00;;;9.90;;
53753;SDS011;39667;52.274;20.964;2022-08-14T07:17:27;10.40;;;9.50;;
53753;SDS011;39667;52.274;20.964;2022-08-14T07:19:57;10.80;;;9.70;;
53753;SDS011;39667;52.274;20.964;2022-08-14T07:22:24;10.40;;;9.00;;
53753;SDS011;39667;52.274;20.964;2022-08-14T07:25:11;15.20;;;9.40;;
53753;SDS011;39667;52.274;20.964;2022-08-14T07:27:38;9.80;;;8.90;;
53753;SDS011;39667;52.274;20.964;2022-08-14T07:30:08;10.00;;;9.00;;
53753;SDS011;39667;52.274;20.964;2022-08-14T07:32:56;10.50;;;8.50;;
53753;SDS011;39667;52.274;20.964;2022-08-14T07:35:23;13.10;;;9.20;;
53753;SDS011;39667;52.274;20.964;2022-08-14T07:38:06;9.80;;;8.90;;
53753;SDS011;39667;52.274;20.964;2022-08-14T07:40:34;10.80;;;9.70;;
53753;SDS011;39667;52.274;20.964;2022-08-14T07:43:01;10.70;;;9.70;;
53753;SDS011;39667;52.274;20.964;2022-08-14T07:45:40;11.20;;;10.00;;
53753;SDS011;39667;52.274;20.964;2022-08-14T07:48:07;10.80;;;9.70;;
53753;SDS011;39667;52.274;20.964;2022-08-14T07:50:41;10.10;;;9.00;;
53753;SDS011;39667;52.274;20.964;2022-08-14T07:53:12;11.70;;;10.60;;
53753;SDS011;39667;52.274;20.964;2022-08-14T07:55:40;10.00;;;9.00;;
53753;SDS011;39667;52.274;20.964;2022-08-14T07:58:08;10.20;;;9.10;;
53753;SDS011;39667;52.274;20.964;2022-08-14T08:00:56;12.40;;;9.50;;
53753;SDS011;39667;52.274;20.964;2022-08-14T08:03:24;10.00;;;9.00;;
53753;SDS011;39667;52.274;20.964;2022-08-14T08:05:55;10.00;;;9.20;;
53753;SDS011;39667;52.274;20.964;2022-08-14T08:08:23;10.10;;;8.90;;
53753;SDS011;39667;52.274;20.964;2022-08-14T08:10:53;9.90;;;9.00;;
53753;SDS011;39667;52.274;20.964;2022-08-14T08:13:27;12.40;;;9.30;;
53753;SDS011;39667;52.274;20.964;2022-08-14T08:15:59;13.20;;;9.60;;
53753;SDS011;39667;52.274;20.964;2022-08-14T08:18:27;10.40;;;9.50;;
53753;SDS011;39667;52.274;20.964;2022-08-14T08:20:56;10.90;;;9.60;;
53753;SDS011;39667;52.274;20.964;2022-08-14T08:23:25;11.10;;;9.60;;
53753;SDS011;39667;52.274;20.964;2022-08-14T08:26:05;11.30;;;9.80;;
53753;SDS011;39667;52.274;20.964;2022-08-14T08:28:32;11.00;;;9.70;;
53753;SDS011;39667;52.274;20.964;2022-08-14T08:31:00;13.30;;;10.00;;
53753;SDS011;39667;52.274;20.964;2022-08-14T08:33:30;12.20;;;9.20;;
53753;SDS011;39667;52.274;20.964;2022-08-14T08:36:04;10.70;;;9.60;;
53753;SDS011;39667;52.274;20.964;2022-08-14T08:38:38;10.30;;;8.90;;
53753;SDS011;39667;52.274;20.964;2022-08-14T08:41:25;10.40;;;8.70;;
53753;SDS011;39667;52.274;20.964;2022-08-14T08:44:04;10.50;;;9.50;;
53753;SDS011;39667;52.274;20.964;2022-08-14T08:46:55;10.30;;;9.10;;
53753;SDS011;39667;52.274;20.964;2022-08-14T08:49:33;10.00;;;9.00;;
53753;SDS011;39667;52.274;20.964;2022-08-14T08:52:26;12.70;;;10.10;;
53753;SDS011;39667;52.274;20.964;2022-08-14T08:54:58;11.10;;;10.10;;
53753;SDS011;39667;52.274;20.964;2022-08-14T08:57:32;13.10;;;10.50;;
53753;SDS011;39667;52.274;20.964;2022-08-14T09:00:11;11.30;;;9.80;;
53753;SDS011;39667;52.274;20.964;2022-08-14T09:02:51;13.10;;;9.50;;
53753;SDS011;39667;52.274;20.964;2022-08-14T09:05:23;9.70;;;8.70;;
53753;SDS011;39667;52.274;20.964;2022-08-14T09:07:51;10.50;;;9.20;;
53753;SDS011;39667;52.274;20.964;2022-08-14T09:10:21;10.70;;;9.10;;
53753;SDS011;39667;52.274;20.964;2022-08-14T09:12:52;10.50;;;9.50;;
53753;SDS011;39667;52.274;20.964;2022-08-14T09:15:21;10.40;;;9.40;;
53753;SDS011;39667;52.274;20.964;2022-08-14T09:17:49;10.70;;;9.60;;
53753;SDS011;39667;52.274;20.964;2022-08-14T09:20:17;10.60;;;9.60;;
53753;SDS011;39667;52.274;20.964;2022-08-14T09:22:55;9.70;;;8.80;;
53753;SDS011;39667;52.274;20.964;2022-08-14T09:25:23;11.90;;;10.50;;
53753;SDS011;39667;52.274;20.964;2022-08-14T09:28:11;10.10;;;9.20;;
53753;SDS011;39667;52.274;20.964;2022-08-14T09:30:41;10.40;;;9.50;;
53753;SDS011;39667;52.274;20.964;2022-08-14T09:36:26;12.20;;;9.30;;
53753;SDS011;39667;52.274;20.964;2022-08-14T09:47:47;10.50;;;9.00;;
53753;SDS011;39667;52.274;20.964;2022-08-14T09:53:03;10.60;;;9.70;;
53753;SDS011;39667;52.274;20.964;2022-08-14T09:55:44;11.60;;;9.30;;
53753;SDS011;39667;52.274;20.964;2022-08-14T09:58:13;10.40;;;9.20;;
53753;SDS011;39667;52.274;20.964;2022-08-14T10:03:33;11.00;;;9.20;;
53753;SDS011;39667;52.274;20.964;2022-08-14T10:08:39;12.00;;;9.40;;
53753;SDS011;39667;52.274;20.964;2022-08-14T10:11:14;11.20;;;9.90;;
53753;SDS011;39667;52.274;20.964;2022-08-14T10:13:49;11.10;;;9.20;;
53753;SDS011;39667;52.274;20.964;2022-08-14T10:16:25;11.60;;;9.70;;
53753;SDS011;39667;52.274;20.964;2022-08-14T10:19:04;10.30;;;9.40;;
53753;SDS011;39667;52.274;20.964;2022-08-14T10:21:38;11.40;;;9.30;;
53753;SDS011;39667;52.274;20.964;2022-08-14T10:24:29;10.30;;;9.20;;
53753;SDS011;39667;52.274;20.964;2022-08-14T10:27:03;11.80;;;10.20;;
53753;SDS011;39667;52.274;20.964;2022-08-14T10:29:35;10.50;;;9.60;;
53753;SDS011;39667;52.274;20.964;2022-08-14T10:32:05;11.50;;;10.30;;
53753;SDS011;39667;52.274;20.964;2022-08-14T10:35:03;10.60;;;9.60;;
53753;SDS011;39667;52.274;20.964;2022-08-14T10:37:41;11.40;;;10.00;;
53753;SDS011;39667;52.274;20.964;2022-08-14T10:40:12;10.70;;;9.70;;
53753;SDS011;39667;52.274;20.964;2022-08-14T10:43:01;11.20;;;10.20;;
53753;SDS011;39667;52.274;20.964;2022-08-14T10:45:31;14.30;;;9.60;;
53753;SDS011;39667;52.274;20.964;2022-08-14T10:48:13;10.80;;;9.90;;
53753;SDS011;39667;52.274;20.964;2022-08-14T10:51:03;10.30;;;9.10;;
53753;SDS011;39667;52.274;20.964;2022-08-14T10:53:35;10.20;;;9.20;;
53753;SDS011;39667;52.274;20.964;2022-08-14T10:56:07;10.80;;;9.30;;
53753;SDS011;39667;52.274;20.964;2022-08-14T10:58:59;10.20;;;9.20;;
53753;SDS011;39667;52.274;20.964;2022-08-14T11:01:29;11.10;;;9.00;;
53753;SDS011;39667;52.274;20.964;2022-08-14T11:04:06;10.30;;;9.30;;
53753;SDS011;39667;52.274;20.964;2022-08-14T11:06:53;10.30;;;9.30;;
53753;SDS011;39667;52.274;20.964;2022-08-14T11:09:21;10.50;;;9.50;;
53753;SDS011;39667;52.274;20.964;2022-08-14T11:11:55;9.80;;;8.90;;
53753;SDS011;39667;52.274;20.964;2022-08-14T11:14:49;9.90;;;8.90;;
53753;SDS011;39667;52.274;20.964;2022-08-14T11:17:27;10.60;;;8.80;;
53753;SDS011;39667;52.274;20.964;2022-08-14T11:19:58;9.80;;;8.80;;
53753;SDS011;39667;52.274;20.964;2022-08-14T11:22:27;10.30;;;9.30;;
53753;SDS011;39667;52.274;20.964;2022-08-14T11:25:16;9.50;;;8.40;;
53753;SDS011;39667;52.274;20.964;2022-08-14T11:27:46;10.40;;;9.20;;
53753;SDS011;39667;52.274;20.964;2022-08-14T11:30:16;10.30;;;9.00;;
53753;SDS011;39667;52.274;20.964;2022-08-14T11:33:05;9.50;;;8.70;;
53753;SDS011;39667;52.274;20.964;2022-08-14T11:35:34;10.10;;;9.10;;
53753;SDS011;39667;52.274;20.964;2022-08-14T11:38:13;10.60;;;9.20;;
53753;SDS011;39667;52.274;20.964;2022-08-14T11:40:43;11.20;;;10.10;;
53753;SDS011;39667;52.274;20.964;2022-08-14T11:43:13;12.10;;;9.90;;
53753;SDS011;39667;52.274;20.964;2022-08-14T11:45:43;10.80;;;9.70;;
53753;SDS011;39667;52.274;20.964;2022-08-14T11:48:18;11.00;;;9.70;;
53753;SDS011;39667;52.274;20.964;2022-08-14T11:51:17;10.60;;;9.60;;
53753;SDS011;39667;52.274;20.964;2022-08-14T11:53:53;10.90;;;9.80;;
53753;SDS011;39667;52.274;20.964;2022-08-14T11:56:22;10.20;;;9.20;;
53753;SDS011;39667;52.274;20.964;2022-08-14T11:58:51;10.60;;;9.60;;
53753;SDS011;39667;52.274;20.964;2022-08-14T12:01:24;11.10;;;9.40;;
53753;SDS011;39667;52.274;20.964;2022-08-14T12:03:54;10.70;;;9.40;;
53753;SDS011;39667;52.274;20.964;2022-08-14T12:06:26;10.60;;;9.50;;
53753;SDS011;39667;52.274;20.964;2022-08-14T12:09:05;12.10;;;9.70;;
53753;SDS011;39667;52.274;20.964;2022-08-14T12:11:41;11.10;;;10.00;;
53753;SDS011;39667;52.274;20.964;2022-08-14T12:14:17;11.20;;;10.10;;
53753;SDS011;39667;52.274;20.964;2022-08-14T12:17:00;13.00;;;9.90;;
53753;SDS011;39667;52.274;20.964;2022-08-14T12:19:30;10.70;;;8.90;;
53753;SDS011;39667;52.274;20.964;2022-08-14T12:22:10;10.20;;;9.20;;
53753;SDS011;39667;52.274;20.964;2022-08-14T12:24:54;11.50;;;10.00;;
53753;SDS011;39667;52.274;20.964;2022-08-14T12:27:22;12.20;;;9.60;;
53753;SDS011;39667;52.274;20.964;2022-08-14T12:29:53;11.50;;;9.60;;
53753;SDS011;39667;52.274;20.964;2022-08-14T12:32:20;11.50;;;9.00;;
53753;SDS011;39667;52.274;20.964;2022-08-14T12:34:51;12.70;;;9.40;;
53753;SDS011;39667;52.274;20.964;2022-08-14T12:37:27;10.30;;;9.30;;
53753;SDS011;39667;52.274;20.964;2022-08-14T12:40:07;10.60;;;9.50;;
53753;SDS011;39667;52.274;20.964;2022-08-14T12:42:37;14.20;;;9.20;;
53753;SDS011;39667;52.274;20.964;2022-08-14T12:45:17;12.40;;;8.40;;
53753;SDS011;39667;52.274;20.964;2022-08-14T12:47:59;11.80;;;9.20;;
53753;SDS011;39667;52.274;20.964;2022-08-14T12:50:47;15.90;;;9.70;;
53753;SDS011;39667;52.274;20.964;2022-08-14T12:53:18;10.30;;;8.80;;
53753;SDS011;39667;52.274;20.964;2022-08-14T12:55:56;9.70;;;8.70;;
53753;SDS011;39667;52.274;20.964;2022-08-14T12:58:49;11.90;;;8.50;;
53753;SDS011;39667;52.274;20.964;2022-08-14T13:01:19;8.80;;;8.00;;
53753;SDS011;39667;52.274;20.964;2022-08-14T13:03:48;14.70;;;9.30;;
53753;SDS011;39667;52.274;20.964;2022-08-14T13:06:17;11.70;;;8.60;;
53753;SDS011;39667;52.274;20.964;2022-08-14T13:08:49;10.10;;;8.60;;
53753;SDS011;39667;52.274;20.964;2022-08-14T13:11:27;10.10;;;9.10;;
53753;SDS011;39667;52.274;20.964;2022-08-14T13:14:06;11.10;;;9.20;;
53753;SDS011;39667;52.274;20.964;2022-08-14T13:16:42;9.50;;;8.60;;
53753;SDS011;39667;52.274;20.964;2022-08-14T13:19:16;10.00;;;8.80;;
53753;SDS011;39667;52.274;20.964;2022-08-14T13:21:46;9.90;;;8.50;;
53753;SDS011;39667;52.274;20.964;2022-08-14T13:24:31;10.60;;;7.70;;
53753;SDS011;39667;52.274;20.964;2022-08-14T13:27:00;10.30;;;8.70;;
53753;SDS011;39667;52.274;20.964;2022-08-14T13:29:31;9.10;;;8.30;;
53753;SDS011;39667;52.274;20.964;2022-08-14T13:32:05;12.20;;;8.80;;
53753;SDS011;39667;52.274;20.964;2022-08-14T13:34:36;9.50;;;8.40;;
53753;SDS011;39667;52.274;20.964;2022-08-14T13:37:03;8.80;;;7.90;;
53753;SDS011;39667;52.274;20.964;2022-08-14T13:39:32;9.90;;;8.10;;
53753;SDS011;39667;52.274;20.964;2022-08-14T13:42:05;9.20;;;8.20;;
53753;SDS011;39667;52.274;20.964;2022-08-14T13:44:40;11.30;;;9.20;;
53753;SDS011;39667;52.274;20.964;2022-08-14T13:47:09;9.10;;;8.20;;
53753;SDS011;39667;52.274;20.964;2022-08-14T13:49:36;8.80;;;7.90;;
53753;SDS011;39667;52.274;20.964;2022-08-14T13:52:23;8.80;;;7.70;;
53753;SDS011;39667;52.274;20.964;2022-08-14T13:55:11;8.70;;;7.70;;
53753;SDS011;39667;52.274;20.964;2022-08-14T13:57:41;8.80;;;8.00;;
53753;SDS011;39667;52.274;20.964;2022-08-14T14:00:16;9.20;;;8.30;;
53753;SDS011;39667;52.274;20.964;2022-08-14T14:03:00;8.60;;;7.80;;
53753;SDS011;39667;52.274;20.964;2022-08-14T14:05:31;10.60;;;9.20;;
53753;SDS011;39667;52.274;20.964;2022-08-14T14:08:19;9.60;;;8.30;;
53753;SDS011;39667;52.274;20.964;2022-08-14T14:11:08;8.50;;;7.80;;
53753;SDS011;39667;52.274;20.964;2022-08-14T14:13:35;10.00;;;8.60;;
53753;SDS011;39667;52.274;20.964;2022-08-14T14:16:10;8.80;;;8.10;;
53753;SDS011;39667;52.274;20.964;2022-08-14T14:18:52;9.90;;;8.60;;
53753;SDS011;39667;52.274;20.964;2022-08-14T14:21:35;10.20;;;8.50;;
53753;SDS011;39667;52.274;20.964;2022-08-14T14:24:05;9.60;;;8.80;;
53753;SDS011;39667;52.274;20.964;2022-08-14T14:26:32;10.50;;;8.90;;
53753;SDS011;39667;52.274;20.964;2022-08-14T14:29:01;9.40;;;8.50;;
53753;SDS011;39667;52.274;20.964;2022-08-14T14:31:29;12.20;;;8.50;;
53753;SDS011;39667;52.274;20.964;2022-08-14T14:33:59;9.10;;;8.20;;
53753;SDS011;39667;52.274;20.964;2022-08-14T14:36:45;10.40;;;8.30;;
53753;SDS011;39667;52.274;20.964;2022-08-14T14:39:19;12.40;;;10.20;;
53753;SDS011;39667;52.274;20.964;2022-08-14T14:41:53;9.50;;;8.20;;
53753;SDS011;39667;52.274;20.964;2022-08-14T14:44:23;9.30;;;8.30;;
53753;SDS011;39667;52.274;20.964;2022-08-14T14:46:58;9.60;;;8.60;;
53753;SDS011;39667;52.274;20.964;2022-08-14T14:49:27;9.40;;;8.60;;
53753;SDS011;39667;52.274;20.964;2022-08-14T14:52:15;9.10;;;8.20;;
53753;SDS011;39667;52.274;20.964;2022-08-14T14:54:56;9.90;;;8.90;;
53753;SDS011;39667;52.274;20.964;2022-08-14T14:57:24;9.50;;;8.60;;
53753;SDS011;39667;52.274;20.964;2022-08-14T15:00:03;11.10;;;8.40;;
53753;SDS011;39667;52.274;20.964;2022-08-14T15:02:47;9.40;;;8.50;;
53753;SDS011;39667;52.274;20.964;2022-08-14T15:05:18;10.20;;;9.20;;
53753;SDS011;39667;52.274;20.964;2022-08-14T15:07:47;9.90;;;9.00;;
53753;SDS011;39667;52.274;20.964;2022-08-14T15:10:19;9.70;;;8.70;;
53753;SDS011;39667;52.274;20.964;2022-08-14T15:12:56;11.00;;;8.40;;
53753;SDS011;39667;52.274;20.964;2022-08-14T15:15:30;12.90;;;8.80;;
53753;SDS011;39667;52.274;20.964;2022-08-14T15:18:03;9.60;;;8.40;;
53753;SDS011;39667;52.274;20.964;2022-08-14T15:20:52;9.00;;;8.20;;
53753;SDS011;39667;52.274;20.964;2022-08-14T15:23:21;11.80;;;9.20;;
53753;SDS011;39667;52.274;20.964;2022-08-14T15:25:57;11.40;;;8.30;;
53753;SDS011;39667;52.274;20.964;2022-08-14T15:28:26;10.10;;;8.10;;
53753;SDS011;39667;52.274;20.964;2022-08-14T15:31:04;11.10;;;8.60;;
53753;SDS011;39667;52.274;20.964;2022-08-14T15:33:33;13.30;;;8.60;;
53753;SDS011;39667;52.274;20.964;2022-08-14T15:36:40;10.80;;;8.00;;
53753;SDS011;39667;52.274;20.964;2022-08-14T15:39:11;9.30;;;8.40;;
53753;SDS011;39667;52.274;20.964;2022-08-14T15:41:40;10.60;;;8.80;;